Time;durP1;ratioP1;P1;durP2;ratioP2;P2;SDS_P1;SDS_P2;PMS_P1;PMS_P2;Temp;Humidity;BMP_temperature;BMP_pressure;BME280_temperature;BME280_humidity;BME280_pressure;Samples;Min_cycle;Max_cycle;Signal;HPM_P1;HPM_P2
2021/04/29 00:00:17;;;;;;;7.50;4.90;;;4.70;66.70;;;;;;5018059;28;20116;-91
2021/04/29 00:02:43;;;;;;;8.40;4.45;;;4.60;67.00;;;;;;5016817;28;20479;-91
2021/04/29 00:05:14;;;;;;;5.72;4.13;;;4.60;67.20;;;;;;5016743;28;20022;-92
2021/04/29 00:07:40;;;;;;;6.32;4.28;;;4.60;67.30;;;;;;5016109;28;20034;-92
2021/04/29 00:10:08;;;;;;;8.18;5.38;;;4.50;67.40;;;;;;5015865;28;20018;-92
2021/04/29 00:12:34;;;;;;;7.80;4.55;;;4.50;67.50;;;;;;5015286;28;20700;-92
2021/04/29 00:15:00;;;;;;;6.45;4.38;;;4.50;67.60;;;;;;5016163;28;20029;-91
2021/04/29 00:17:26;;;;;;;5.45;4.20;;;4.50;67.80;;;;;;5016055;28;20064;-92
2021/04/29 00:19:53;;;;;;;5.63;4.38;;;4.50;67.80;;;;;;5018084;28;20061;-91
2021/04/29 00:22:19;;;;;;;6.90;5.10;;;4.50;68.00;;;;;;5015881;28;20068;-91
2021/04/29 00:24:45;;;;;;;6.25;4.85;;;4.40;68.40;;;;;;5015855;28;20022;-92
2021/04/29 00:27:11;;;;;;;5.82;4.10;;;4.30;68.90;;;;;;5015521;28;20033;-91
2021/04/29 00:29:37;;;;;;;5.97;4.05;;;4.30;69.20;;;;;;5018849;28;20060;-91
2021/04/29 00:32:03;;;;;;;12.25;5.20;;;4.20;69.40;;;;;;5017958;28;20083;-91
2021/04/29 00:34:29;;;;;;;6.15;4.68;;;4.20;69.90;;;;;;5018439;28;20029;-91
2021/04/29 00:36:55;;;;;;;8.77;5.70;;;4.10;70.30;;;;;;5017686;28;20041;-91
2021/04/29 00:39:23;;;;;;;9.70;6.65;;;4.10;70.60;;;;;;5017836;28;20485;-91
2021/04/29 00:41:50;;;;;;;8.02;5.38;;;4.00;70.60;;;;;;5021182;28;20085;-91
2021/04/29 00:44:16;;;;;;;10.20;6.95;;;4.00;71.40;;;;;;5027148;28;20030;-91
2021/04/29 00:46:42;;;;;;;9.95;6.40;;;3.90;71.70;;;;;;5018137;28;20051;-91
2021/04/29 00:49:08;;;;;;;10.88;7.10;;;3.90;72.00;;;;;;5018317;28;20033;-92
2021/04/29 00:51:34;;;;;;;10.77;7.22;;;3.80;72.10;;;;;;5016132;28;20038;-91
2021/04/29 00:54:00;;;;;;;10.45;6.68;;;3.80;72.50;;;;;;5015541;28;20105;-91
2021/04/29 00:56:25;;;;;;;12.98;8.65;;;3.70;72.90;;;;;;5018467;28;20017;-92
2021/04/29 00:58:52;;;;;;;10.30;7.25;;;3.70;73.20;;;;;;5018664;28;20095;-91
2021/04/29 01:01:20;;;;;;;12.20;7.82;;;3.70;73.30;;;;;;5019170;28;20060;-92
2021/04/29 01:03:58;;;;;;;14.88;8.10;;;3.60;73.70;;;;;;5018999;28;20121;-91
2021/04/29 01:06:46;;;;;;;15.75;9.82;;;3.60;74.20;;;;;;5018933;28;20434;-91
2021/04/29 01:09:37;;;;;;;13.02;8.75;;;3.60;75.70;;;;;;5020937;28;20079;-91
2021/04/29 01:12:53;;;;;;;15.45;9.57;;;3.50;74.70;;;;;;5031108;28;20033;-91
2021/04/29 01:15:19;;;;;;;16.48;9.30;;;3.50;76.80;;;;;;4968889;28;20049;-92
2021/04/29 01:17:47;;;;;;;15.10;8.63;;;3.50;74.60;;;;;;5023647;28;20083;-91
2021/04/29 01:20:21;;;;;;;16.02;9.50;;;3.40;74.80;;;;;;5057214;28;20040;-92
2021/04/29 01:23:20;;;;;;;13.82;9.48;;;3.40;76.00;;;;;;5018949;28;20063;-92
2021/04/29 01:25:49;;;;;;;11.85;7.72;;;3.40;76.80;;;;;;4979596;28;20034;-91
2021/04/29 01:28:16;;;;;;;13.65;8.68;;;3.30;75.60;;;;;;5018882;28;20375;-91
2021/04/29 01:30:43;;;;;;;14.70;9.20;;;3.30;76.00;;;;;;5020380;28;20037;-91
2021/04/29 01:33:09;;;;;;;13.38;7.57;;;3.30;76.10;;;;;;5043358;28;20045;-91
2021/04/29 01:35:36;;;;;;;17.05;8.88;;;3.30;76.50;;;;;;5037549;28;20045;-92
2021/04/29 01:38:02;;;;;;;12.73;9.02;;;3.20;76.80;;;;;;5018987;28;20030;-91
2021/04/29 01:40:29;;;;;;;16.27;10.43;;;3.20;77.00;;;;;;5018640;28;20059;-91
2021/04/29 01:42:55;;;;;;;18.48;11.70;;;3.20;77.20;;;;;;5019140;28;20040;-91
2021/04/29 01:45:21;;;;;;;16.38;9.88;;;3.20;77.40;;;;;;5019390;28;20533;-91
2021/04/29 01:47:47;;;;;;;14.98;9.80;;;3.20;77.50;;;;;;5018738;28;20034;-91
2021/04/29 01:50:13;;;;;;;14.05;8.98;;;3.20;77.80;;;;;;5034924;28;20022;-91
2021/04/29 01:52:40;;;;;;;16.50;10.07;;;3.20;77.90;;;;;;5024045;28;20100;-91
2021/04/29 01:55:08;;;;;;;14.90;9.45;;;3.20;77.90;;;;;;5019467;28;20116;-92
2021/04/29 01:57:37;;;;;;;20.30;12.30;;;3.10;78.00;;;;;;5019058;28;20056;-92
2021/04/29 02:00:08;;;;;;;17.80;11.32;;;3.10;78.30;;;;;;5019237;28;20033;-92
2021/04/29 02:02:34;;;;;;;17.02;10.93;;;3.10;78.70;;;;;;5019688;28;20053;-92
2021/04/29 02:05:00;;;;;;;20.45;12.80;;;3.10;78.40;;;;;;5019076;28;20064;-92
2021/04/29 02:07:26;;;;;;;21.13;11.23;;;3.10;78.80;;;;;;5019872;28;20038;-92
2021/04/29 02:09:52;;;;;;;14.82;10.48;;;3.20;78.90;;;;;;5022700;28;20087;-92
2021/04/29 02:12:18;;;;;;;15.68;10.60;;;3.10;79.10;;;;;;5021132;28;20037;-92
2021/04/29 02:14:51;;;;;;;22.73;13.60;;;3.10;79.20;;;;;;5018691;28;20079;-92
2021/04/29 02:17:44;;;;;;;24.02;13.57;;;3.10;80.00;;;;;;5018494;28;20586;-92
2021/04/29 02:20:14;;;;;;;22.33;13.70;;;3.10;82.20;;;;;;5019553;28;20029;-91
2021/04/29 02:22:41;;;;;;;25.50;14.27;;;3.10;80.80;;;;;;5018824;28;20045;-91
2021/04/29 02:25:13;;;;;;;25.00;13.15;;;3.10;80.70;;;;;;5019243;28;20026;-92
2021/04/29 02:27:42;;;;;;;29.23;16.27;;;3.10;81.50;;;;;;5037351;28;20029;-92
2021/04/29 02:30:13;;;;;;;21.27;13.60;;;3.10;81.20;;;;;;5019503;28;20498;-91
2021/04/29 02:32:40;;;;;;;25.92;16.10;;;3.10;81.80;;;;;;5038056;28;20080;-91
2021/04/29 02:35:08;;;;;;;20.90;12.95;;;3.10;81.40;;;;;;5021082;28;20056;-91
2021/04/29 02:37:37;;;;;;;26.17;16.02;;;3.10;81.70;;;;;;5020204;28;20037;-91
2021/04/29 02:40:05;;;;;;;24.20;14.32;;;3.10;81.90;;;;;;5022662;28;20032;-90
2021/04/29 02:42:33;;;;;;;24.35;15.23;;;3.10;82.20;;;;;;5020944;28;20168;-91
2021/04/29 02:45:00;;;;;;;24.90;14.75;;;3.10;82.80;;;;;;5019783;28;20048;-92
2021/04/29 02:47:27;;;;;;;29.88;17.13;;;3.10;82.40;;;;;;5020078;28;20124;-92
2021/04/29 02:49:53;;;;;;;27.45;15.02;;;3.10;82.90;;;;;;5019983;28;20033;-91
2021/04/29 02:52:19;;;;;;;21.05;13.38;;;3.10;83.10;;;;;;5019947;28;20051;-91
2021/04/29 02:54:45;;;;;;;22.00;14.40;;;3.10;83.40;;;;;;5019331;28;20456;-91
2021/04/29 02:57:20;;;;;;;24.90;13.95;;;3.20;83.80;;;;;;5018652;28;20498;-91
2021/04/29 02:59:46;;;;;;;22.77;14.10;;;3.20;85.00;;;;;;5018546;28;20025;-91
2021/04/29 03:02:12;;;;;;;26.65;13.88;;;3.30;84.20;;;;;;5017661;28;20520;-91
2021/04/29 03:04:38;;;;;;;21.77;13.02;;;3.40;84.30;;;;;;5017295;28;20112;-91
2021/04/29 03:07:04;;;;;;;23.75;15.77;;;3.50;84.20;;;;;;5017025;28;20072;-92
2021/04/29 03:09:31;;;;;;;24.77;14.57;;;3.50;83.90;;;;;;5018289;28;20036;-91
2021/04/29 03:11:57;;;;;;;20.63;12.57;;;3.60;83.80;;;;;;5019309;28;20037;-91
2021/04/29 03:14:23;;;;;;;21.60;13.30;;;3.70;83.90;;;;;;5017641;28;20037;-91
2021/04/29 03:16:48;;;;;;;19.05;13.43;;;3.80;83.70;;;;;;5018033;28;20028;-93
2021/04/29 03:19:14;;;;;;;18.52;13.57;;;3.90;84.00;;;;;;5017956;28;20025;-91
2021/04/29 03:21:40;;;;;;;22.77;16.20;;;4.00;84.00;;;;;;5019101;28;20025;-91
2021/04/29 03:24:07;;;;;;;17.48;13.65;;;4.10;83.90;;;;;;5017935;28;20022;-92
2021/04/29 03:26:34;;;;;;;19.75;14.77;;;4.30;83.90;;;;;;5019351;28;20031;-91
2021/04/29 03:29:03;;;;;;;22.95;15.25;;;4.40;83.80;;;;;;5018632;28;20581;-92
2021/04/29 03:31:29;;;;;;;20.63;15.30;;;4.50;84.10;;;;;;5018152;28;20040;-93
2021/04/29 03:33:57;;;;;;;21.33;14.80;;;4.70;83.70;;;;;;5018246;28;20049;-92
2021/04/29 03:36:22;;;;;;;18.65;14.32;;;4.80;83.40;;;;;;5020917;28;20033;-91
2021/04/29 03:38:48;;;;;;;22.88;15.68;;;4.90;83.20;;;;;;5017336;28;20037;-91
2021/04/29 03:41:14;;;;;;;22.88;15.90;;;5.10;83.00;;;;;;5017102;28;20099;-91
2021/04/29 03:43:40;;;;;;;21.65;14.38;;;5.30;82.90;;;;;;5018250;28;20029;-91
2021/04/29 03:46:06;;;;;;;19.60;14.18;;;5.40;82.50;;;;;;5016494;28;20017;-92
2021/04/29 03:48:32;;;;;;;22.30;16.40;;;5.60;82.20;;;;;;5016680;28;20136;-91
2021/04/29 03:50:58;;;;;;;24.85;18.15;;;5.80;81.70;;;;;;5017809;28;20393;-93
2021/04/29 03:53:24;;;;;;;25.98;18.25;;;6.10;81.30;;;;;;5040513;28;20550;-92
2021/04/29 03:55:50;;;;;;;25.73;17.08;;;6.30;81.00;;;;;;5017462;28;20057;-91
2021/04/29 03:58:16;;;;;;;24.55;18.20;;;6.60;80.50;;;;;;5018606;28;20129;-91
2021/04/29 04:00:44;;;;;;;25.30;17.73;;;6.90;79.90;;;;;;5018598;28;20029;-91
2021/04/29 04:03:10;;;;;;;26.77;17.30;;;7.20;79.20;;;;;;5016533;28;20044;-92
2021/04/29 04:05:36;;;;;;;25.05;15.25;;;7.50;78.50;;;;;;5016855;28;20022;-91
2021/04/29 04:08:04;;;;;;;25.02;16.80;;;7.90;77.80;;;;;;5016585;28;20041;-91
2021/04/29 04:10:30;;;;;;;20.42;15.10;;;8.20;76.70;;;;;;5017946;28;20028;-93
2021/04/29 04:12:56;;;;;;;25.50;17.70;;;8.60;76.00;;;;;;5016284;28;20042;-91
2021/04/29 04:15:22;;;;;;;26.50;20.40;;;8.90;75.10;;;;;;5016452;28;20632;-93
2021/04/29 04:17:47;;;;;;;28.67;22.10;;;9.10;74.30;;;;;;5015984;28;20040;-91
2021/04/29 04:20:14;;;;;;;27.10;21.15;;;9.30;74.10;;;;;;5015941;28;20501;-93
2021/04/29 04:22:40;;;;;;;25.48;21.02;;;9.50;74.20;;;;;;5016962;28;20030;-93
2021/04/29 04:25:06;;;;;;;30.58;23.13;;;9.80;74.00;;;;;;5034442;28;20071;-92
2021/04/29 04:27:33;;;;;;;25.52;20.92;;;10.00;73.60;;;;;;4996144;28;20042;-93
2021/04/29 04:29:59;;;;;;;23.83;19.10;;;10.10;73.50;;;;;;5000651;28;20030;-92
2021/04/29 04:32:25;;;;;;;25.48;19.30;;;10.30;73.50;;;;;;5038329;28;20378;-93
2021/04/29 04:34:54;;;;;;;20.77;16.20;;;10.40;73.30;;;;;;5043066;28;20038;-92
2021/04/29 04:37:19;;;;;;;21.60;16.35;;;10.40;73.10;;;;;;5021491;28;20186;-91
2021/04/29 04:39:45;;;;;;;24.73;18.50;;;10.60;73.20;;;;;;5025702;28;20057;-92
2021/04/29 04:42:11;;;;;;;22.25;17.65;;;10.70;72.90;;;;;;5021564;28;20041;-91
2021/04/29 04:44:37;;;;;;;26.60;19.52;;;10.70;73.00;;;;;;5047172;28;20020;-92
2021/04/29 04:47:03;;;;;;;20.85;17.15;;;10.80;73.70;;;;;;5021489;28;20032;-91
2021/04/29 04:49:29;;;;;;;21.48;16.25;;;10.90;73.90;;;;;;5022195;28;20026;-92
2021/04/29 04:51:55;;;;;;;20.80;16.27;;;11.10;74.00;;;;;;5020408;28;20036;-91
2021/04/29 04:54:22;;;;;;;18.73;15.07;;;11.10;74.50;;;;;;5021497;28;20160;-92
2021/04/29 04:56:48;;;;;;;22.17;15.52;;;11.00;75.00;;;;;;5022319;28;20034;-92
2021/04/29 04:59:14;;;;;;;26.90;16.77;;;11.10;74.70;;;;;;5022107;28;20033;-92
2021/04/29 05:01:40;;;;;;;24.90;18.02;;;11.10;73.70;;;;;;5017470;28;20427;-91
2021/04/29 05:04:07;;;;;;;25.23;20.30;;;11.10;73.50;;;;;;5023414;28;20097;-91
2021/04/29 05:06:36;;;;;;;25.90;20.35;;;11.00;73.40;;;;;;5030493;28;20034;-91
2021/04/29 05:09:04;;;;;;;28.15;19.83;;;10.90;73.60;;;;;;5034212;28;20029;-92
2021/04/29 05:11:33;;;;;;;26.17;19.80;;;10.90;74.50;;;;;;5022089;28;20041;-91
2021/04/29 05:13:59;;;;;;;28.25;20.42;;;10.90;74.50;;;;;;5019363;28;20034;-92
2021/04/29 05:16:37;;;;;;;27.48;19.08;;;11.00;74.70;;;;;;5022151;28;20057;-93
2021/04/29 05:19:03;;;;;;;26.10;18.83;;;11.00;74.90;;;;;;5023147;28;20148;-91
2021/04/29 05:21:34;;;;;;;25.60;18.15;;;11.00;74.70;;;;;;5011521;28;20040;-92
2021/04/29 05:24:07;;;;;;;29.35;18.23;;;11.10;74.70;;;;;;5025495;28;20049;-92
2021/04/29 05:26:34;;;;;;;21.42;15.63;;;11.20;73.80;;;;;;5027382;28;20057;-90
2021/04/29 05:29:00;;;;;;;23.98;15.70;;;11.10;73.70;;;;;;5024558;28;20430;-91
2021/04/29 05:31:26;;;;;;;21.17;14.50;;;11.10;73.80;;;;;;5020840;28;20108;-88
2021/04/29 05:33:52;;;;;;;18.27;13.75;;;11.20;73.50;;;;;;5026307;28;20046;-89
2021/04/29 05:36:18;;;;;;;19.17;12.65;;;11.20;72.90;;;;;;4988080;28;20040;-87
2021/04/29 05:38:44;;;;;;;22.75;13.27;;;11.30;72.90;;;;;;5016367;28;20037;-88
2021/04/29 05:41:12;;;;;;;19.50;13.55;;;11.40;72.60;;;;;;5026262;28;20038;-88
2021/04/29 05:43:38;;;;;;;17.77;12.88;;;11.40;72.10;;;;;;5016229;28;20025;-88
2021/04/29 05:46:04;;;;;;;17.90;12.93;;;11.40;72.10;;;;;;5014605;28;20052;-90
2021/04/29 05:48:30;;;;;;;15.55;12.18;;;11.40;71.80;;;;;;5007171;28;20048;-90
2021/04/29 05:50:57;;;;;;;16.58;12.02;;;11.40;71.60;;;;;;5007111;28;20151;-89
2021/04/29 05:53:23;;;;;;;17.17;11.65;;;11.50;70.80;;;;;;5008154;28;20120;-90
2021/04/29 05:55:48;;;;;;;20.08;14.60;;;11.60;70.60;;;;;;5005964;28;20029;-90
2021/04/29 05:58:14;;;;;;;19.08;12.32;;;11.70;68.90;;;;;;5010696;28;20037;-89
2021/04/29 06:00:40;;;;;;;15.13;10.68;;;11.70;67.80;;;;;;5006908;28;20029;-88
2021/04/29 06:03:06;;;;;;;15.52;10.15;;;11.70;67.10;;;;;;5029480;28;20617;-90
2021/04/29 06:05:32;;;;;;;17.63;9.57;;;11.80;66.10;;;;;;5010507;28;20041;-89
2021/04/29 06:07:59;;;;;;;12.40;8.85;;;11.90;65.10;;;;;;5008672;28;20034;-89
2021/04/29 06:10:29;;;;;;;17.38;9.18;;;12.00;64.60;;;;;;5015433;28;20124;-90
2021/04/29 06:12:58;;;;;;;14.88;8.88;;;12.10;63.50;;;;;;5021032;28;20063;-91
2021/04/29 06:15:24;;;;;;;16.05;9.43;;;12.30;62.40;;;;;;5011005;28;20032;-91
2021/04/29 06:17:50;;;;;;;19.73;9.70;;;12.40;62.10;;;;;;5014558;28;20058;-91
2021/04/29 06:20:20;;;;;;;21.60;11.48;;;12.60;61.90;;;;;;5020125;28;20045;-92
2021/04/29 06:22:54;;;;;;;13.95;9.52;;;12.80;60.50;;;;;;5015762;28;20083;-91
2021/04/29 06:25:20;;;;;;;14.50;9.82;;;13.10;60.40;;;;;;5012230;28;20087;-91
2021/04/29 06:27:46;;;;;;;22.15;10.07;;;13.40;59.70;;;;;;5014526;28;20093;-89
2021/04/29 06:30:13;;;;;;;28.40;10.40;;;13.60;58.70;;;;;;5011854;28;20061;-92
2021/04/29 06:32:49;;;;;;;26.55;10.48;;;13.80;57.60;;;;;;5002872;28;20040;-92
2021/04/29 06:35:15;;;;;;;21.83;8.13;;;14.00;55.90;;;;;;5010849;28;20029;-90
2021/04/29 06:37:40;;;;;;;22.45;8.70;;;14.10;56.50;;;;;;5033655;28;20044;-92
2021/04/29 06:40:07;;;;;;;23.02;10.18;;;14.10;55.90;;;;;;5036422;28;20025;-91
2021/04/29 06:42:33;;;;;;;27.08;13.02;;;14.30;55.40;;;;;;5033753;28;20145;-90
2021/04/29 06:44:59;;;;;;;33.53;11.90;;;14.50;54.80;;;;;;5024013;28;20240;-92
2021/04/29 06:47:27;;;;;;;29.42;13.07;;;14.70;54.40;;;;;;5012307;28;20088;-89
2021/04/29 06:49:54;;;;;;;14.38;9.00;;;14.80;53.30;;;;;;5014337;28;20037;-90
2021/04/29 06:52:21;;;;;;;15.60;8.10;;;15.00;53.40;;;;;;5024856;28;20077;-91
2021/04/29 06:54:47;;;;;;;21.88;8.07;;;15.10;52.60;;;;;;5022487;28;20036;-89
2021/04/29 06:57:14;;;;;;;17.05;7.50;;;15.10;51.50;;;;;;5027508;28;20025;-91
2021/04/29 06:59:43;;;;;;;20.23;8.20;;;14.90;51.30;;;;;;5044952;28;20026;-91
2021/04/29 07:02:09;;;;;;;21.90;8.40;;;14.90;51.70;;;;;;5014147;28;20043;-90
2021/04/29 07:04:35;;;;;;;11.20;6.45;;;14.90;51.70;;;;;;5009721;28;20025;-91
2021/04/29 07:07:02;;;;;;;21.27;8.25;;;14.90;51.30;;;;;;5009341;28;20260;-91
2021/04/29 07:09:28;;;;;;;26.30;9.82;;;14.90;51.40;;;;;;5015530;28;20025;-92
2021/04/29 07:11:54;;;;;;;19.52;8.35;;;14.90;51.00;;;;;;5026223;28;20399;-91
2021/04/29 07:14:20;;;;;;;18.50;9.30;;;15.00;50.90;;;;;;5029853;28;20033;-89
2021/04/29 07:16:47;;;;;;;17.70;9.20;;;15.00;50.80;;;;;;5012383;28;20492;-89
2021/04/29 07:19:12;;;;;;;14.65;8.52;;;15.00;50.20;;;;;;5026152;28;20034;-90
2021/04/29 07:21:38;;;;;;;15.57;8.60;;;14.90;50.60;;;;;;5008914;28;20036;-91
2021/04/29 07:24:07;;;;;;;17.85;8.77;;;15.00;50.40;;;;;;5021633;28;20064;-92
2021/04/29 07:26:42;;;;;;;27.17;9.98;;;15.30;50.90;;;;;;5013645;28;20036;-91
2021/04/29 07:29:08;;;;;;;18.48;9.43;;;15.60;50.30;;;;;;5011765;28;20041;-90
2021/04/29 07:31:44;;;;;;;12.18;7.88;;;15.80;49.90;;;;;;5010873;28;20079;-90
2021/04/29 07:34:18;;;;;;;17.05;7.57;;;16.00;48.80;;;;;;5011436;28;20406;-90
2021/04/29 07:36:43;;;;;;;16.63;7.40;;;16.20;49.30;;;;;;5025845;28;20009;-92
2021/04/29 07:39:29;;;;;;;14.40;7.53;;;16.60;49.30;;;;;;5155304;22;20077;-91
2021/04/29 07:41:55;;;;;;;16.23;7.55;;;17.20;47.40;;;;;;5025415;28;20056;-90
2021/04/29 07:44:21;;;;;;;8.75;5.55;;;17.50;46.00;;;;;;5037315;28;20006;-92
2021/04/29 07:46:58;;;;;;;7.82;4.72;;;17.90;46.20;;;;;;5052799;28;20056;-92
2021/04/29 07:49:24;;;;;;;5.95;4.50;;;18.20;45.00;;;;;;5075836;28;20026;-90
2021/04/29 07:51:50;;;;;;;6.90;4.78;;;18.40;45.70;;;;;;5039482;28;20012;-90
2021/04/29 07:54:18;;;;;;;6.47;4.50;;;18.80;44.00;;;;;;5051350;28;20049;-91
2021/04/29 07:56:50;;;;;;;6.45;4.43;;;18.90;44.30;;;;;;5048653;28;20033;-90
2021/04/29 07:59:25;;;;;;;5.85;4.53;;;19.10;43.10;;;;;;5044008;28;20501;-91
2021/04/29 08:04:54;;;;;;;8.98;4.95;;;18.80;42.80;;;;;;5026813;28;20038;-90
2021/04/29 08:07:23;;;;;;;8.02;4.72;;;18.60;42.80;;;;;;5046015;28;20036;-90
2021/04/29 08:45:15;;;;;;;3.65;2.75;;;20.80;39.10;;;;;;5394080;22;20049;-93
2021/04/29 08:47:41;;;;;;;3.67;3.00;;;20.80;38.90;;;;;;5030640;28;20033;-91
2021/04/29 08:50:08;;;;;;;5.50;3.05;;;21.10;39.50;;;;;;5031992;28;20041;-92
2021/04/29 08:52:37;;;;;;;4.15;3.00;;;21.90;39.70;;;;;;5030314;28;20055;-90
2021/04/29 08:55:05;;;;;;;2.55;2.20;;;22.60;38.40;;;;;;5021903;28;20069;-89
2021/04/29 08:57:31;;;;;;;2.60;2.20;;;22.80;37.70;;;;;;5007950;28;20022;-91
2021/04/29 08:59:58;;;;;;;3.40;2.40;;;22.60;37.20;;;;;;5049600;28;20038;-92
2021/04/29 09:02:35;;;;;;;3.42;2.47;;;22.20;37.60;;;;;;5043967;28;20133;-91
2021/04/29 09:05:18;;;;;;;2.50;2.25;;;22.00;38.10;;;;;;5042196;28;20120;-90
2021/04/29 09:07:58;;;;;;;3.42;2.40;;;22.10;38.20;;;;;;5025920;28;20127;-89
2021/04/29 09:10:44;;;;;;;3.28;2.03;;;22.30;38.10;;;;;;5029629;28;20467;-89
2021/04/29 09:13:14;;;;;;;2.67;2.13;;;22.90;37.80;;;;;;5038023;28;20059;-89
2021/04/29 09:15:44;;;;;;;3.63;2.30;;;23.10;36.90;;;;;;5036951;28;20025;-88
2021/04/29 09:18:15;;;;;;;4.45;2.50;;;23.20;36.90;;;;;;5026318;28;20025;-88
2021/04/29 09:20:52;;;;;;;2.55;1.98;;;23.50;36.00;;;;;;5032156;28;20033;-89
2021/04/29 09:23:21;;;;;;;3.42;2.47;;;23.50;36.20;;;;;;5031989;28;20301;-90
2021/04/29 09:26:10;;;;;;;2.47;2.00;;;23.50;36.50;;;;;;5030699;28;20026;-92
2021/04/29 09:28:43;;;;;;;1.75;1.65;;;24.10;36.20;;;;;;5028286;28;20486;-89
2021/04/29 09:31:12;;;;;;;2.33;1.75;;;24.30;35.00;;;;;;5038243;28;20105;-91
2021/04/29 09:33:43;;;;;;;1.95;1.60;;;24.30;34.80;;;;;;5055670;28;20029;-92
2021/04/29 09:36:23;;;;;;;2.03;1.83;;;24.60;34.00;;;;;;5034288;22;20566;-86
2021/04/29 09:38:57;;;;;;;2.72;1.70;;;24.30;33.40;;;;;;5003283;28;20030;-89
2021/04/29 09:41:27;;;;;;;3.78;1.80;;;24.10;34.70;;;;;;5003737;28;20044;-86
2021/04/29 09:43:59;;;;;;;2.10;1.55;;;24.10;35.10;;;;;;4999896;28;20033;-87
2021/04/29 09:46:25;;;;;;;1.88;1.77;;;24.30;34.60;;;;;;5003640;28;20025;-86
2021/04/29 09:48:51;;;;;;;4.22;1.70;;;24.40;34.10;;;;;;5006469;28;20037;-87
2021/04/29 09:51:19;;;;;;;1.70;1.60;;;24.50;34.10;;;;;;5011261;28;20115;-88
2021/04/29 10:06:30;;;;;;;2.22;1.70;;;26.70;33.30;;;;;;5043300;28;20133;-91
2021/04/29 10:08:56;;;;;;;1.95;1.42;;;26.60;32.30;;;;;;5021385;28;20036;-89
2021/04/29 10:11:23;;;;;;;1.60;1.50;;;26.50;32.30;;;;;;5030498;28;21066;-90
2021/04/29 10:13:58;;;;;;;2.38;1.45;;;26.30;32.00;;;;;;5020493;28;20056;-89
2021/04/29 10:16:27;;;;;;;2.58;1.85;;;26.00;32.10;;;;;;5022761;28;20486;-91
2021/04/29 10:18:55;;;;;;;1.60;1.50;;;26.20;32.50;;;;;;5016511;28;20034;-90
2021/04/29 10:21:22;;;;;;;2.45;1.50;;;26.30;32.20;;;;;;5012216;28;20029;-90
2021/04/29 10:23:49;;;;;;;2.25;1.50;;;26.50;32.60;;;;;;5016311;28;20026;-89
2021/04/29 10:26:26;;;;;;;1.58;1.42;;;26.60;32.00;;;;;;5023463;28;20022;-91
2021/04/29 10:29:02;;;;;;;2.85;1.75;;;26.30;31.80;;;;;;5020186;28;20076;-89
2021/04/29 10:31:31;;;;;;;2.30;1.50;;;25.90;32.10;;;;;;5030359;28;20030;-92
2021/04/29 10:33:59;;;;;;;4.60;1.77;;;26.00;33.00;;;;;;5046514;28;20046;-91
2021/04/29 10:36:54;;;;;;;3.22;1.83;;;26.10;31.30;;;;;;5005415;28;20111;-91
2021/04/29 10:39:26;;;;;;;4.32;1.65;;;25.00;31.90;;;;;;4997942;28;20040;-90
2021/04/29 10:42:10;;;;;;;2.33;2.13;;;24.10;33.20;;;;;;5019059;28;20414;-92
2021/04/29 10:44:48;;;;;;;2.47;1.75;;;23.70;33.80;;;;;;5024464;28;20026;-90
2021/04/29 10:47:30;;;;;;;2.08;1.70;;;23.80;34.60;;;;;;5040816;28;20097;-91
2021/04/29 10:50:12;;;;;;;2.78;1.80;;;24.20;34.50;;;;;;5021394;28;20038;-91
2021/04/29 10:53:00;;;;;;;1.63;1.52;;;24.60;33.60;;;;;;5022889;28;20487;-89
2021/04/29 10:55:30;;;;;;;2.17;1.90;;;24.40;33.40;;;;;;5037007;28;20034;-89
2021/04/29 10:57:58;;;;;;;3.47;1.90;;;24.20;34.30;;;;;;5032360;28;20049;-90
2021/04/29 11:00:52;;;;;;;1.60;1.50;;;24.10;34.10;;;;;;5023119;28;20022;-89
2021/04/29 11:03:28;;;;;;;3.00;1.70;;;23.90;34.40;;;;;;5027855;28;20040;-89
2021/04/29 11:06:04;;;;;;;3.47;2.63;;;24.10;35.40;;;;;;5027632;28;20034;-90
2021/04/29 11:08:51;;;;;;;2.85;2.60;;;24.80;35.60;;;;;;5021134;28;20502;-88
2021/04/29 11:11:24;;;;;;;2.78;2.45;;;25.70;35.30;;;;;;5011338;28;20033;-89
2021/04/29 11:14:03;;;;;;;2.67;2.40;;;26.30;34.30;;;;;;5014881;28;20029;-88
2021/04/29 11:16:42;;;;;;;4.18;3.38;;;26.70;34.20;;;;;;5014985;28;20118;-90
2021/04/29 11:19:08;;;;;;;3.90;2.95;;;26.70;32.70;;;;;;5016222;28;20049;-90
2021/04/29 11:21:34;;;;;;;4.78;3.13;;;26.30;33.00;;;;;;5018719;28;20501;-89
2021/04/29 11:24:03;;;;;;;4.13;3.05;;;26.10;33.30;;;;;;5010272;28;20030;-90
2021/04/29 11:30:15;;;;;;;3.95;2.72;;;26.00;33.70;;;;;;4935192;29;20047;-92
2021/04/29 11:32:53;;;;;;;2.60;2.40;;;25.80;33.60;;;;;;4910201;29;20054;-89
2021/04/29 11:35:29;;;;;;;3.25;2.45;;;25.90;33.90;;;;;;4982125;28;20052;-91
2021/04/29 11:38:18;;;;;;;3.08;2.35;;;26.30;34.10;;;;;;5034659;28;20013;-90
2021/04/29 11:40:44;;;;;;;3.85;2.90;;;26.90;33.90;;;;;;5001022;28;20480;-91
2021/04/29 11:43:13;;;;;;;4.03;2.40;;;26.70;32.80;;;;;;5014359;28;20040;-90
2021/04/29 11:45:41;;;;;;;3.60;2.47;;;26.60;33.50;;;;;;5017457;28;20483;-90
2021/04/29 11:48:15;;;;;;;3.63;2.90;;;26.80;33.40;;;;;;5014393;28;20051;-90
2021/04/29 11:50:58;;;;;;;3.55;2.40;;;26.80;33.00;;;;;;5014406;28;20101;-89
2021/04/29 11:53:51;;;;;;;2.70;2.20;;;26.90;32.30;;;;;;5006896;28;20052;-90
2021/04/29 11:56:23;;;;;;;3.78;2.40;;;26.70;32.60;;;;;;5020506;28;20037;-89
2021/04/29 11:59:04;;;;;;;5.03;2.80;;;26.50;32.70;;;;;;5022867;28;20029;-89
2021/04/29 12:01:29;;;;;;;6.22;3.35;;;26.80;33.10;;;;;;5001710;28;20030;-91
2021/04/29 12:03:55;;;;;;;4.30;2.50;;;27.00;32.20;;;;;;5020301;28;20037;-90
2021/04/29 12:06:22;;;;;;;2.92;2.35;;;26.90;31.50;;;;;;5018841;28;20486;-89
2021/04/29 12:08:49;;;;;;;3.65;2.58;;;26.40;31.60;;;;;;5026386;28;20024;-91
2021/04/29 12:11:16;;;;;;;3.20;2.60;;;26.10;31.70;;;;;;5020802;28;20120;-90
2021/04/29 12:13:44;;;;;;;4.05;2.60;;;25.60;32.40;;;;;;5023775;28;20069;-91
2021/04/29 12:17:01;;;;;;;3.80;2.60;;;25.60;32.60;;;;;;5007964;28;20389;-92
2021/04/29 12:19:06;;;;;;;4.35;2.50;;;25.50;32.70;;;;;;5019744;28;20068;-91
2021/04/29 12:21:34;;;;;;;2.80;2.38;;;25.60;32.80;;;;;;5029385;28;20037;-91
2021/04/29 12:24:13;;;;;;;2.90;2.42;;;25.60;32.70;;;;;;5033659;28;20045;-91
2021/04/29 12:27:07;;;;;;;3.05;2.60;;;25.50;32.80;;;;;;5027123;28;20025;-92
2021/04/29 12:29:36;;;;;;;2.90;2.25;;;25.30;32.50;;;;;;5026032;28;20045;-91
2021/04/29 12:32:07;;;;;;;5.03;2.50;;;24.40;32.90;;;;;;5014575;28;20030;-92
2021/04/29 12:34:40;;;;;;;5.07;2.72;;;23.40;34.00;;;;;;5048473;22;20046;-88
2021/04/29 12:37:07;;;;;;;5.03;2.83;;;22.50;35.30;;;;;;5025154;28;20072;-87
2021/04/29 12:39:42;;;;;;;5.90;2.65;;;22.30;36.30;;;;;;5011952;28;20037;-86
2021/04/29 12:42:13;;;;;;;4.18;2.90;;;22.40;36.50;;;;;;5012959;22;20117;-87
2021/04/29 12:44:49;;;;;;;3.72;2.90;;;22.30;36.00;;;;;;5008452;28;20026;-88
2021/04/29 12:47:23;;;;;;;4.40;2.72;;;21.90;36.60;;;;;;5017642;28;20504;-90
2021/04/29 12:49:57;;;;;;;;;;;21.60;37.00;;;;;;5031497;28;20494;-87
2021/04/29 12:52:23;;;;;;;4.05;2.50;;;21.20;37.40;;;;;;5034523;28;19967;-87
2021/04/29 12:54:53;;;;;;;4.22;2.97;;;21.20;38.40;;;;;;5029673;28;20088;-89
2021/04/29 12:57:22;;;;;;;3.20;2.65;;;21.30;37.50;;;;;;5100958;22;20124;-90
2021/04/29 12:59:51;;;;;;;3.55;2.67;;;21.40;37.70;;;;;;5033954;28;20029;-88
2021/04/29 13:02:24;;;;;;;4.85;2.40;;;21.20;37.50;;;;;;5033887;28;20037;-89
2021/04/29 13:05:18;;;;;;;4.97;2.85;;;21.00;37.80;;;;;;5032769;28;20022;-88
2021/04/29 13:07:44;;;;;;;3.47;2.92;;;20.70;38.20;;;;;;5014771;28;20053;-88
2021/04/29 13:10:20;;;;;;;2.97;2.60;;;20.80;38.30;;;;;;5052426;28;20033;-89
2021/04/29 13:12:54;;;;;;;4.90;3.10;;;21.20;38.50;;;;;;5056638;28;20032;-89
2021/04/29 13:15:20;;;;;;;3.13;2.72;;;21.90;37.40;;;;;;5053647;28;20148;-90
2021/04/29 13:17:48;;;;;;;3.40;2.63;;;22.10;36.40;;;;;;5034802;28;20037;-89
2021/04/29 13:20:16;;;;;;;2.70;2.50;;;22.30;36.40;;;;;;5045676;28;20021;-89
2021/04/29 13:22:42;;;;;;;3.33;2.67;;;22.30;35.40;;;;;;5040674;28;20132;-91
2021/04/29 13:25:15;;;;;;;4.70;2.70;;;22.00;35.70;;;;;;5034680;28;20021;-91
2021/04/29 13:27:43;;;;;;;3.50;2.70;;;22.10;36.40;;;;;;5033610;28;20112;-89
2021/04/29 13:30:11;;;;;;;6.13;2.83;;;22.60;36.00;;;;;;5019923;28;20018;-91
2021/04/29 13:32:37;;;;;;;5.82;2.85;;;22.70;35.70;;;;;;5033598;28;20483;-90
2021/04/29 13:35:03;;;;;;;3.67;2.60;;;23.20;35.60;;;;;;5036538;28;20045;-91
2021/04/29 13:37:30;;;;;;;3.03;2.47;;;23.80;34.50;;;;;;5034961;28;20102;-90
2021/04/29 13:39:56;;;;;;;5.57;2.58;;;24.10;34.20;;;;;;5035287;28;20040;-90
2021/04/29 13:42:24;;;;;;;5.13;2.55;;;24.50;33.50;;;;;;5042609;28;20014;-89
2021/04/29 13:44:50;;;;;;;4.97;2.40;;;24.60;33.00;;;;;;5057616;28;20041;-89
2021/04/29 13:47:16;;;;;;;7.72;2.50;;;24.50;32.50;;;;;;5054554;28;20085;-89